createdAt,value
2022-09-14T00:01:27.168Z,0.32
2022-09-14T00:07:00.100Z,0.40
2022-09-14T00:09:45.683Z,0.40
2022-09-14T00:12:31.277Z,0.50
2022-09-14T00:15:16.877Z,0.40
2022-09-14T00:18:02.142Z,0.45
2022-09-14T00:20:47.611Z,0.60
2022-09-14T00:23:35.382Z,0.40
2022-09-14T00:26:22.585Z,0.60
2022-09-14T00:29:07.699Z,0.60
2022-09-14T00:31:53.423Z,0.50
2022-09-14T00:34:39.185Z,0.50
2022-09-14T00:37:24.569Z,0.40
2022-09-14T00:40:12.380Z,0.50
2022-09-14T00:42:57.400Z,0.50
2022-09-14T00:45:43.010Z,0.40
2022-09-14T00:48:29.973Z,0.60
2022-09-14T00:51:17.940Z,0.35
2022-09-14T00:54:04.824Z,0.45
2022-09-14T00:56:51.313Z,0.43
2022-09-14T00:59:39.240Z,0.50
2022-09-14T01:02:27.177Z,0.47
2022-09-14T01:05:13.037Z,0.40
2022-09-14T01:08:08.788Z,0.40
2022-09-14T01:11:16.313Z,0.32
2022-09-14T01:14:10.103Z,0.40
2022-09-14T01:17:12.426Z,0.50
2022-09-14T01:20:07.979Z,0.55
2022-09-14T01:22:59.612Z,0.80
2022-09-14T01:26:05.283Z,0.40
2022-09-14T01:29:14.176Z,0.82
2022-09-14T01:32:05.017Z,0.40
2022-09-14T01:35:07.711Z,0.30
2022-09-14T01:40:51.067Z,0.50
2022-09-14T01:43:48.483Z,0.50
2022-09-14T01:46:40.461Z,0.40
2022-09-14T01:49:52.077Z,0.63
2022-09-14T01:52:46.111Z,0.47
2022-09-14T01:55:55.769Z,0.70
2022-09-14T01:58:57.171Z,0.40
2022-09-14T02:02:09.489Z,0.30
2022-09-14T02:05:10.448Z,0.60
2022-09-14T02:07:56.792Z,0.40
2022-09-14T02:10:42.237Z,0.40
2022-09-14T02:13:28.739Z,0.30
2022-09-14T02:16:14.396Z,0.32
2022-09-14T02:19:01.673Z,0.32
2022-09-14T02:21:47.264Z,0.40
2022-09-14T02:24:32.664Z,0.30
2022-09-14T02:27:18.280Z,0.40
2022-09-14T02:30:04.301Z,0.43
2022-09-14T02:33:08.869Z,0.50
2022-09-14T02:35:55.868Z,0.40
2022-09-14T02:38:46.059Z,0.30
2022-09-14T02:41:42.023Z,0.40
2022-09-14T02:44:59.289Z,0.47
2022-09-14T02:47:56.927Z,0.40
2022-09-14T02:50:59.104Z,0.40
2022-09-14T02:54:22.468Z,0.40
2022-09-14T02:57:07.849Z,0.57
2022-09-14T02:59:54.985Z,0.50
2022-09-14T03:02:40.035Z,0.40
2022-09-14T03:05:26.037Z,0.40
2022-09-14T03:08:11.938Z,0.40
2022-09-14T03:10:57.909Z,0.50
2022-09-14T03:13:44.400Z,0.43
2022-09-14T03:16:29.867Z,0.40
2022-09-14T03:19:15.237Z,0.32
2022-09-14T03:22:00.695Z,0.40
2022-09-14T03:24:46.129Z,0.47
2022-09-14T03:27:31.537Z,0.40
2022-09-14T03:30:17.695Z,0.50
2022-09-14T03:33:03.657Z,0.50
2022-09-14T03:35:49.009Z,0.40
2022-09-14T03:38:34.588Z,0.40
2022-09-14T03:41:21.396Z,0.40
2022-09-14T03:44:06.972Z,0.52
2022-09-14T03:46:52.182Z,0.35
2022-09-14T03:49:37.521Z,0.40
2022-09-14T03:52:22.923Z,0.40
2022-09-14T03:55:09.277Z,0.40
2022-09-14T03:57:55.948Z,0.30
2022-09-14T04:00:41.336Z,0.40
2022-09-14T04:03:26.426Z,0.50
2022-09-14T04:06:12.373Z,0.47
2022-09-14T04:08:59.148Z,0.40
2022-09-14T04:11:44.556Z,0.40
2022-09-14T04:14:30.125Z,0.40
2022-09-14T04:17:16.812Z,0.32
2022-09-14T04:20:02.566Z,0.30
2022-09-14T04:22:48.328Z,0.40
2022-09-14T04:25:33.779Z,0.40
2022-09-14T04:28:20.722Z,0.47
2022-09-14T04:31:06.672Z,0.50
2022-09-14T04:33:52.107Z,0.30
2022-09-14T04:36:37.747Z,0.47
2022-09-14T04:39:23.310Z,0.40
2022-09-14T04:42:08.585Z,0.50
2022-09-14T04:44:54.068Z,0.50
2022-09-14T04:47:39.349Z,0.32
2022-09-14T04:50:24.930Z,0.40
2022-09-14T04:53:11.577Z,0.50
2022-09-14T04:56:05.727Z,0.40
2022-09-14T04:58:54.200Z,0.45
2022-09-14T05:01:42.226Z,0.57
2022-09-14T05:04:27.947Z,0.45
2022-09-14T05:07:13.451Z,0.60
2022-09-14T05:09:58.677Z,0.50
2022-09-14T05:12:44.334Z,0.60
2022-09-14T05:15:29.447Z,0.60
2022-09-14T05:18:15.337Z,0.60
2022-09-14T05:21:08.419Z,0.50
2022-09-14T05:23:56.001Z,0.50
2022-09-14T05:26:43.125Z,0.40
2022-09-14T05:29:29.776Z,0.50
2022-09-14T05:32:15.083Z,0.40
2022-09-14T05:35:00.577Z,0.50
2022-09-14T05:37:45.945Z,0.50
2022-09-14T05:40:31.379Z,0.60
2022-09-14T05:43:16.850Z,0.47
2022-09-14T05:46:06.897Z,0.60
2022-09-14T05:48:52.416Z,0.50
2022-09-14T05:51:37.855Z,0.57
2022-09-14T05:54:23.444Z,0.50
2022-09-14T05:57:08.876Z,0.50
2022-09-14T05:59:54.459Z,0.70
2022-09-14T06:02:39.905Z,0.52
2022-09-14T06:05:25.577Z,0.50
2022-09-14T06:08:10.938Z,0.40
2022-09-14T06:10:56.390Z,0.52
2022-09-14T06:13:42.585Z,0.57
2022-09-14T06:16:28.579Z,0.50
2022-09-14T06:19:15.313Z,0.45
2022-09-14T06:22:00.804Z,0.55
2022-09-14T06:24:45.875Z,0.60
2022-09-14T06:27:31.339Z,0.50
2022-09-14T06:30:16.707Z,0.43
2022-09-14T06:33:04.772Z,0.55
2022-09-14T06:36:12.630Z,0.60
2022-09-14T06:39:00.042Z,0.55
2022-09-14T06:41:45.220Z,0.65
2022-09-14T06:44:37.728Z,0.80
2022-09-14T06:47:23.807Z,0.40
2022-09-14T06:50:09.021Z,0.38
2022-09-14T06:52:54.334Z,0.70
2022-09-14T06:55:39.953Z,0.50
2022-09-14T06:58:25.370Z,0.40
2022-09-14T07:01:12.799Z,0.40
2022-09-14T07:04:00.335Z,0.40
2022-09-14T07:06:48.180Z,0.30
2022-09-14T07:09:33.704Z,0.40
2022-09-14T07:12:18.863Z,0.35
2022-09-14T07:15:04.753Z,0.40
2022-09-14T07:17:50.387Z,0.43
2022-09-14T07:20:35.728Z,0.50
2022-09-14T07:23:21.768Z,0.50
2022-09-14T07:26:13.440Z,0.50
2022-09-14T07:29:03.644Z,0.50
2022-09-14T07:31:51.335Z,0.60
2022-09-14T07:34:36.628Z,0.40
2022-09-14T07:37:22.315Z,0.50
2022-09-14T07:40:09.668Z,0.65
2022-09-14T07:42:57.599Z,0.60
2022-09-14T07:45:43.100Z,0.50
2022-09-14T07:48:28.594Z,0.50
2022-09-14T07:51:14.433Z,0.70
2022-09-14T07:54:01.736Z,0.43
2022-09-14T07:56:47.846Z,0.50
2022-09-14T07:59:36.525Z,0.50
2022-09-14T08:02:24.371Z,0.47
2022-09-14T08:05:11.173Z,0.60
2022-09-14T08:07:56.703Z,0.60
2022-09-14T08:10:42.124Z,0.50
2022-09-14T08:13:27.256Z,0.52
2022-09-14T08:16:13.922Z,0.60
2022-09-14T08:19:02.071Z,0.60
2022-09-14T08:21:47.925Z,0.40
2022-09-14T08:24:33.479Z,0.63
2022-09-14T08:27:19.080Z,0.50
2022-09-14T08:30:05.496Z,0.60
2022-09-14T08:32:54.303Z,0.60
2022-09-14T08:35:57.514Z,0.50
2022-09-14T08:38:43.627Z,0.68
2022-09-14T08:42:02.477Z,0.60
2022-09-14T08:44:56.488Z,0.80
2022-09-14T08:47:42.429Z,0.68
2022-09-14T08:50:29.240Z,0.50
2022-09-14T08:53:14.730Z,0.60
2022-09-14T08:56:06.463Z,0.60
2022-09-14T08:58:57.268Z,0.60
2022-09-14T09:02:15.668Z,0.50
2022-09-14T09:05:23.508Z,0.50
2022-09-14T09:08:56.817Z,0.80
2022-09-14T09:11:46.478Z,0.65
2022-09-14T09:14:43.277Z,0.77
2022-09-14T09:17:34.538Z,0.80
2022-09-14T09:20:37.821Z,0.70
2022-09-14T09:23:25.408Z,0.70
2022-09-14T09:26:23.112Z,0.43
2022-09-14T09:29:10.025Z,0.70
2022-09-14T09:32:18.276Z,0.70
2022-09-14T09:35:24.898Z,0.60
2022-09-14T09:38:19.313Z,0.60
2022-09-14T09:41:21.986Z,0.60
2022-09-14T09:44:12.102Z,0.70
2022-09-14T09:47:01.078Z,0.65
2022-09-14T09:49:56.475Z,0.50
2022-09-14T09:52:54.272Z,0.88
2022-09-14T09:55:40.111Z,0.60
2022-09-14T09:58:38.772Z,0.52
2022-09-14T10:01:34.695Z,0.60
2022-09-14T10:04:28.274Z,0.60
2022-09-14T10:07:22.007Z,0.50
2022-09-14T10:10:14.122Z,0.73
2022-09-14T10:12:59.815Z,0.50
2022-09-14T10:15:46.785Z,0.50
2022-09-14T10:18:32.288Z,0.70
2022-09-14T10:21:19.672Z,0.70
2022-09-14T10:24:17.264Z,0.70
2022-09-14T10:27:02.824Z,0.70
2022-09-14T10:29:50.710Z,0.70
2022-09-14T10:32:37.854Z,0.50
2022-09-14T10:35:43.911Z,0.70
2022-09-14T10:38:55.071Z,0.50
2022-09-14T10:42:00.493Z,0.60
2022-09-14T10:44:52.507Z,0.90
2022-09-14T10:48:11.781Z,0.50
2022-09-14T10:51:23.291Z,0.50
2022-09-14T10:54:17.080Z,0.57
2022-09-14T10:57:36.103Z,0.70
2022-09-14T11:00:22.530Z,0.57
2022-09-14T11:03:27.577Z,0.63
2022-09-14T11:06:54.676Z,0.60
2022-09-14T11:10:08.478Z,0.50
2022-09-14T11:13:33.682Z,0.50
2022-09-14T11:16:24.430Z,0.63
2022-09-14T11:19:28.397Z,0.83
2022-09-14T11:22:35.247Z,0.60
2022-09-14T11:25:48.014Z,0.50
2022-09-14T11:28:44.360Z,0.60
2022-09-14T11:32:04.144Z,0.63
2022-09-14T11:35:00.636Z,0.75
2022-09-14T11:38:20.231Z,0.70
2022-09-14T11:41:21.829Z,0.73
2022-09-14T11:44:16.388Z,0.70
2022-09-14T11:47:07.053Z,0.63
2022-09-14T11:50:06.692Z,0.50
2022-09-14T11:53:11.419Z,0.70
2022-09-14T11:55:56.729Z,0.63
2022-09-14T11:58:46.599Z,0.77
2022-09-14T12:01:40.184Z,0.60
2022-09-14T12:04:25.757Z,0.80
2022-09-14T12:07:10.998Z,0.50
2022-09-14T12:10:16.606Z,0.82
2022-09-14T12:13:05.718Z,0.65
2022-09-14T12:16:02.032Z,0.50
2022-09-14T12:18:56.389Z,0.65
2022-09-14T12:21:41.620Z,0.57
2022-09-14T12:24:27.155Z,0.50
2022-09-14T12:27:22.636Z,0.60
2022-09-14T12:30:40.413Z,0.70
2022-09-14T12:33:32.278Z,0.70
2022-09-14T12:36:21.017Z,0.63
2022-09-14T12:39:21.625Z,0.70
2022-09-14T12:42:27.870Z,0.60
2022-09-14T12:45:49.071Z,0.50
2022-09-14T12:48:58.448Z,0.50
2022-09-14T12:51:49.384Z,0.47
2022-09-14T12:54:51.565Z,0.43
2022-09-14T12:57:51.505Z,0.50
2022-09-14T13:00:53.020Z,0.60
2022-09-14T13:03:49.591Z,0.50
2022-09-14T13:06:46.167Z,0.60
2022-09-14T13:09:33.243Z,0.50
2022-09-14T13:12:30.024Z,0.50
2022-09-14T13:15:26.116Z,0.60
2022-09-14T13:18:17.683Z,0.70
2022-09-14T13:21:18.591Z,0.60
2022-09-14T13:24:03.944Z,0.60
2022-09-14T13:26:49.891Z,0.60
2022-09-14T13:29:36.049Z,0.77
2022-09-14T13:32:21.597Z,0.88
2022-09-14T13:35:15.765Z,0.43
2022-09-14T13:38:14.483Z,0.50
2022-09-14T13:41:26.418Z,0.45
2022-09-14T13:44:12.475Z,0.55
2022-09-14T13:47:00.787Z,0.52
2022-09-14T13:49:48.045Z,0.60
2022-09-14T13:53:00.441Z,0.50
2022-09-14T13:55:44.808Z,0.40
2022-09-14T13:58:35.004Z,0.50
2022-09-14T14:01:27.481Z,0.40
2022-09-14T14:04:35.445Z,0.60
2022-09-14T14:07:31.010Z,0.50
2022-09-14T14:10:30.970Z,0.50
2022-09-14T14:13:25.500Z,0.50
2022-09-14T14:16:16.032Z,0.60
2022-09-14T14:19:01.313Z,0.50
2022-09-14T14:21:49.014Z,0.50
2022-09-14T14:24:49.748Z,0.50
2022-09-14T14:27:44.812Z,0.40
2022-09-14T14:30:31.075Z,0.55
2022-09-14T14:33:19.033Z,0.50
2022-09-14T14:36:09.996Z,0.40
2022-09-14T14:38:56.648Z,0.50
2022-09-14T14:41:41.885Z,0.50
2022-09-14T14:44:29.015Z,0.40
2022-09-14T14:47:15.545Z,0.70
2022-09-14T14:50:01.087Z,0.68
2022-09-14T14:52:46.432Z,0.65
2022-09-14T14:55:32.714Z,0.60
2022-09-14T14:58:22.141Z,0.60
2022-09-14T15:01:08.659Z,0.50
2022-09-14T15:03:54.382Z,0.60
2022-09-14T15:06:40.124Z,0.60
2022-09-14T15:09:28.020Z,0.77
2022-09-14T15:12:13.812Z,0.60
2022-09-14T15:14:59.954Z,0.45
2022-09-14T15:17:45.943Z,1.02
2022-09-14T15:20:31.612Z,0.63
2022-09-14T15:23:17.300Z,0.57
2022-09-14T15:26:03.644Z,0.85
2022-09-14T15:28:49.557Z,0.70
2022-09-14T15:31:35.497Z,0.50
2022-09-14T15:34:21.611Z,0.60
2022-09-14T15:37:07.010Z,0.50
2022-09-14T15:39:52.774Z,0.50
2022-09-14T15:42:38.898Z,0.50
2022-09-14T15:45:24.220Z,0.50
2022-09-14T15:48:17.536Z,0.52
2022-09-14T15:51:10.681Z,0.50
2022-09-14T15:53:57.374Z,0.47
2022-09-14T15:56:43.152Z,0.43
2022-09-14T15:59:29.202Z,0.30
2022-09-14T16:02:14.545Z,0.52
2022-09-14T16:05:00.052Z,0.40
2022-09-14T16:07:46.169Z,0.40
2022-09-14T16:10:31.794Z,0.50
2022-09-14T16:13:17.525Z,0.35
2022-09-14T16:16:11.337Z,0.68
2022-09-14T16:18:57.318Z,0.32
2022-09-14T16:21:43.068Z,0.30
2022-09-14T16:24:28.944Z,0.40
2022-09-14T16:27:14.629Z,0.50
2022-09-14T16:29:59.940Z,0.30
2022-09-14T16:32:45.705Z,0.40
2022-09-14T16:35:30.891Z,0.47
2022-09-14T16:38:16.547Z,0.40
2022-09-14T16:41:02.930Z,0.40
2022-09-14T16:43:53.462Z,0.60
2022-09-14T16:46:39.011Z,0.50
2022-09-14T16:49:27.581Z,0.43
2022-09-14T16:52:13.577Z,0.40
2022-09-14T16:54:58.903Z,0.60
2022-09-14T16:57:44.382Z,0.40
2022-09-14T17:00:29.897Z,0.57
2022-09-14T17:03:15.460Z,0.30
2022-09-14T17:06:06.348Z,0.38
2022-09-14T17:08:54.500Z,0.30
2022-09-14T17:11:40.406Z,0.35
2022-09-14T17:14:28.520Z,0.30
2022-09-14T17:17:13.884Z,0.40
2022-09-14T17:19:59.018Z,0.40
2022-09-14T17:22:44.643Z,0.40
2022-09-14T17:25:30.260Z,0.55
2022-09-14T17:28:17.438Z,0.43
2022-09-14T17:31:05.935Z,0.30
2022-09-14T17:33:53.907Z,0.40
2022-09-14T17:36:40.245Z,0.50
2022-09-14T17:39:25.833Z,0.30
2022-09-14T17:42:11.034Z,0.57
2022-09-14T17:44:57.284Z,0.45
2022-09-14T17:47:42.556Z,0.47
2022-09-14T17:50:28.156Z,0.93
2022-09-14T17:53:13.813Z,1.25
2022-09-14T17:56:04.525Z,1.05
2022-09-14T17:58:57.173Z,1.00
2022-09-14T18:01:42.861Z,0.60
2022-09-14T18:04:28.401Z,0.63
2022-09-14T18:07:14.609Z,0.68
2022-09-14T18:10:00.188Z,2.00
2022-09-14T18:12:45.419Z,2.47
2022-09-14T18:15:31.184Z,1.67
2022-09-14T18:18:16.844Z,1.40
2022-09-14T18:21:02.654Z,0.80
2022-09-14T18:23:49.969Z,0.75
2022-09-14T18:26:35.834Z,0.65
2022-09-14T18:29:21.587Z,1.00
2022-09-14T18:32:08.088Z,0.73
2022-09-14T18:34:53.818Z,1.00
2022-09-14T18:37:38.966Z,1.45
2022-09-14T18:40:24.337Z,1.05
2022-09-14T18:43:09.667Z,1.38
2022-09-14T18:45:55.148Z,3.00
2022-09-14T18:48:43.586Z,2.15
2022-09-14T18:51:30.354Z,1.67
2022-09-14T18:54:17.079Z,0.77
2022-09-14T18:57:02.422Z,0.70
2022-09-14T18:59:47.708Z,1.10
2022-09-14T19:02:33.378Z,0.63
2022-09-14T19:05:18.938Z,0.60
2022-09-14T19:08:04.261Z,0.50
2022-09-14T19:10:49.656Z,0.43
2022-09-14T19:13:35.831Z,0.50
2022-09-14T19:16:21.196Z,0.57
2022-09-14T19:19:08.776Z,0.63
2022-09-14T19:21:54.169Z,0.43
2022-09-14T19:24:39.940Z,0.50
2022-09-14T19:27:25.379Z,0.60
2022-09-14T19:30:11.289Z,0.63
2022-09-14T19:32:56.372Z,0.50
2022-09-14T19:35:42.067Z,1.17
2022-09-14T19:38:29.007Z,0.88
2022-09-14T19:41:16.368Z,1.00
2022-09-14T19:44:02.995Z,1.00
2022-09-14T19:46:48.780Z,0.90
2022-09-14T19:49:34.409Z,0.75
2022-09-14T19:52:19.876Z,0.80
2022-09-14T19:55:06.032Z,0.73
2022-09-14T19:57:51.860Z,0.55
2022-09-14T20:00:37.204Z,0.50
2022-09-14T20:03:23.730Z,0.68
2022-09-14T20:06:11.907Z,0.47
2022-09-14T20:09:18.400Z,0.50
2022-09-14T20:12:04.158Z,0.60
2022-09-14T20:14:49.755Z,0.50
2022-09-14T20:17:34.904Z,0.50
2022-09-14T20:20:20.588Z,0.50
2022-09-14T20:23:05.931Z,0.50
2022-09-14T20:25:52.630Z,0.60
2022-09-14T20:28:39.301Z,0.47
2022-09-14T20:31:25.315Z,0.50
2022-09-14T20:34:11.184Z,0.50
2022-09-14T20:36:57.222Z,0.50
2022-09-14T20:39:42.559Z,0.40
2022-09-14T20:42:28.602Z,0.55
2022-09-14T20:45:15.176Z,0.47
2022-09-14T20:48:00.591Z,0.52
2022-09-14T20:50:53.232Z,0.80
2022-09-14T20:53:40.621Z,0.40
2022-09-14T20:56:28.101Z,0.50
2022-09-14T20:59:15.857Z,0.40
2022-09-14T21:02:05.119Z,0.40
2022-09-14T21:04:50.827Z,0.70
2022-09-14T21:07:37.189Z,0.40
2022-09-14T21:10:28.571Z,0.70
2022-09-14T21:16:12.427Z,0.50
2022-09-14T21:19:03.168Z,0.50
2022-09-14T21:21:49.483Z,0.60
2022-09-14T21:24:36.403Z,0.68
2022-09-14T21:27:21.801Z,0.52
2022-09-14T21:30:08.000Z,0.60
2022-09-14T21:32:53.300Z,0.80
2022-09-14T21:35:38.736Z,0.68
2022-09-14T21:38:24.297Z,0.60
2022-09-14T21:41:11.439Z,0.70
2022-09-14T21:43:57.384Z,0.82
2022-09-14T21:46:43.246Z,1.13
2022-09-14T21:49:28.925Z,1.00
2022-09-14T21:52:14.100Z,1.08
2022-09-14T21:54:59.685Z,1.05
2022-09-14T21:57:47.881Z,1.38
2022-09-14T22:00:34.169Z,1.25
2022-09-14T22:03:19.236Z,1.55
2022-09-14T22:06:07.812Z,1.58
2022-09-14T22:08:53.976Z,1.50
2022-09-14T22:11:39.454Z,1.13
2022-09-14T22:14:27.457Z,0.80
2022-09-14T22:17:12.859Z,1.00
2022-09-14T22:19:59.375Z,0.63
2022-09-14T22:22:45.085Z,0.88
2022-09-14T22:25:31.692Z,0.75
2022-09-14T22:28:17.044Z,0.90
2022-09-14T22:31:02.670Z,0.40
2022-09-14T22:33:48.817Z,0.98
2022-09-14T22:36:34.817Z,0.75
2022-09-14T22:39:20.465Z,0.68
2022-09-14T22:42:05.759Z,0.70
2022-09-14T22:44:51.375Z,0.60
2022-09-14T22:47:36.699Z,0.60
2022-09-14T22:50:22.541Z,0.60
2022-09-14T22:53:07.861Z,0.95
2022-09-14T22:55:53.292Z,1.17
2022-09-14T22:58:38.889Z,1.05
2022-09-14T23:01:31.652Z,1.27
2022-09-14T23:04:17.199Z,1.60
2022-09-14T23:07:04.293Z,1.60
2022-09-14T23:09:49.324Z,1.38
2022-09-14T23:12:34.973Z,1.40
2022-09-14T23:15:20.204Z,1.20
2022-09-14T23:18:06.431Z,1.30
2022-09-14T23:20:51.719Z,1.10
2022-09-14T23:23:41.020Z,1.42
2022-09-14T23:26:27.083Z,1.10
2022-09-14T23:29:16.192Z,1.30
2022-09-14T23:32:01.756Z,1.00
2022-09-14T23:34:48.017Z,0.95
2022-09-14T23:37:33.628Z,1.00
2022-09-14T23:40:19.997Z,1.10
2022-09-14T23:43:05.372Z,0.70
2022-09-14T23:45:50.959Z,0.90
2022-09-14T23:48:36.607Z,0.90
2022-09-14T23:51:22.275Z,1.20
2022-09-14T23:54:08.389Z,1.33
2022-09-14T23:56:54.259Z,1.60
2022-09-14T23:59:39.453Z,1.75
